sensor_id;sensor_type;location;lat;lon;timestamp;temperature;humidity
82001;SHT30;71522;50.870;3.524;2023-12-20T00:01:49;5.86;87.08
82001;SHT30;71522;50.870;3.524;2023-12-20T00:04:14;5.87;87.24
82001;SHT30;71522;50.870;3.524;2023-12-20T00:06:40;5.81;87.21
82001;SHT30;71522;50.870;3.524;2023-12-20T00:09:06;5.76;87.53
82001;SHT30;71522;50.870;3.524;2023-12-20T00:11:31;5.78;87.27
82001;SHT30;71522;50.870;3.524;2023-12-20T00:13:57;5.76;87.35
82001;SHT30;71522;50.870;3.524;2023-12-20T00:16:23;5.80;87.63
82001;SHT30;71522;50.870;3.524;2023-12-20T00:18:48;5.83;87.64
82001;SHT30;71522;50.870;3.524;2023-12-20T00:21:14;5.83;87.76
82001;SHT30;71522;50.870;3.524;2023-12-20T00:23:40;5.86;87.58
82001;SHT30;71522;50.870;3.524;2023-12-20T00:26:05;5.87;87.44
82001;SHT30;71522;50.870;3.524;2023-12-20T00:28:31;5.81;87.59
82001;SHT30;71522;50.870;3.524;2023-12-20T00:30:56;5.83;87.67
82001;SHT30;71522;50.870;3.524;2023-12-20T00:33:22;5.83;87.57
82001;SHT30;71522;50.870;3.524;2023-12-20T00:35:48;5.83;87.33
82001;SHT30;71522;50.870;3.524;2023-12-20T00:38:13;5.76;87.35
82001;SHT30;71522;50.870;3.524;2023-12-20T00:40:40;5.76;87.33
82001;SHT30;71522;50.870;3.524;2023-12-20T00:43:05;5.70;87.66
82001;SHT30;71522;50.870;3.524;2023-12-20T00:45:32;5.67;87.58
82001;SHT30;71522;50.870;3.524;2023-12-20T00:47:57;5.67;87.60
82001;SHT30;71522;50.870;3.524;2023-12-20T00:50:24;5.69;87.39
82001;SHT30;71522;50.870;3.524;2023-12-20T00:52:50;5.64;87.57
82001;SHT30;71522;50.870;3.524;2023-12-20T00:55:15;5.67;87.43
82001;SHT30;71522;50.870;3.524;2023-12-20T00:57:41;5.66;87.41
82001;SHT30;71522;50.870;3.524;2023-12-20T01:00:07;5.64;87.42
82001;SHT30;71522;50.870;3.524;2023-12-20T01:02:35;5.64;87.89
82001;SHT30;71522;50.870;3.524;2023-12-20T01:05:01;5.69;87.77
82001;SHT30;71522;50.870;3.524;2023-12-20T01:07:27;5.69;87.70
82001;SHT30;71522;50.870;3.524;2023-12-20T01:09:52;5.69;87.81
82001;SHT30;71522;50.870;3.524;2023-12-20T01:12:18;5.70;87.99
82001;SHT30;71522;50.870;3.524;2023-12-20T01:14:45;5.81;87.83
82001;SHT30;71522;50.870;3.524;2023-12-20T01:17:12;5.81;87.58
82001;SHT30;71522;50.870;3.524;2023-12-20T01:19:37;5.81;87.40
82001;SHT30;71522;50.870;3.524;2023-12-20T01:22:03;5.78;87.42
82001;SHT30;71522;50.870;3.524;2023-12-20T01:24:29;5.77;87.44
82001;SHT30;71522;50.870;3.524;2023-12-20T01:26:55;5.76;87.23
82001;SHT30;71522;50.870;3.524;2023-12-20T01:29:20;5.73;87.29
82001;SHT30;71522;50.870;3.524;2023-12-20T01:31:46;5.80;87.06
82001;SHT30;71522;50.870;3.524;2023-12-20T01:34:12;5.81;87.02
82001;SHT30;71522;50.870;3.524;2023-12-20T01:36:38;5.84;87.07
82001;SHT30;71522;50.870;3.524;2023-12-20T01:39:03;5.90;87.10
82001;SHT30;71522;50.870;3.524;2023-12-20T01:41:29;6.00;86.72
82001;SHT30;71522;50.870;3.524;2023-12-20T01:43:55;6.04;86.38
82001;SHT30;71522;50.870;3.524;2023-12-20T01:46:21;6.10;86.07
82001;SHT30;71522;50.870;3.524;2023-12-20T01:48:48;6.10;85.98
82001;SHT30;71522;50.870;3.524;2023-12-20T01:51:14;6.05;85.98
82001;SHT30;71522;50.870;3.524;2023-12-20T01:53:41;6.05;86.20
82001;SHT30;71522;50.870;3.524;2023-12-20T01:56:09;6.05;86.44
82001;SHT30;71522;50.870;3.524;2023-12-20T01:58:44;6.08;86.58
82001;SHT30;71522;50.870;3.524;2023-12-20T02:01:12;6.13;86.43
82001;SHT30;71522;50.870;3.524;2023-12-20T02:03:53;6.15;86.24
82001;SHT30;71522;50.870;3.524;2023-12-20T02:06:21;6.17;86.10
82001;SHT30;71522;50.870;3.524;2023-12-20T02:08:50;6.20;85.95
82001;SHT30;71522;50.870;3.524;2023-12-20T02:11:16;6.14;85.97
82001;SHT30;71522;50.870;3.524;2023-12-20T02:13:42;6.20;85.73
82001;SHT30;71522;50.870;3.524;2023-12-20T02:16:07;6.17;85.80
82001;SHT30;71522;50.870;3.524;2023-12-20T02:18:33;6.20;85.76
82001;SHT30;71522;50.870;3.524;2023-12-20T02:21:00;6.17;85.81
82001;SHT30;71522;50.870;3.524;2023-12-20T02:23:26;6.17;85.81
82001;SHT30;71522;50.870;3.524;2023-12-20T02:25:52;6.21;85.79
82001;SHT30;71522;50.870;3.524;2023-12-20T02:28:18;6.28;85.52
82001;SHT30;71522;50.870;3.524;2023-12-20T02:30:44;6.25;85.63
82001;SHT30;71522;50.870;3.524;2023-12-20T02:33:12;6.32;85.34
82001;SHT30;71522;50.870;3.524;2023-12-20T02:35:38;6.41;84.87
82001;SHT30;71522;50.870;3.524;2023-12-20T02:38:04;6.31;84.78
82001;SHT30;71522;50.870;3.524;2023-12-20T02:40:29;6.25;84.70
82001;SHT30;71522;50.870;3.524;2023-12-20T02:42:55;6.08;85.22
82001;SHT30;71522;50.870;3.524;2023-12-20T02:45:21;6.03;85.45
82001;SHT30;71522;50.870;3.524;2023-12-20T02:47:46;6.07;85.22
82001;SHT30;71522;50.870;3.524;2023-12-20T02:50:12;5.84;85.62
82001;SHT30;71522;50.870;3.524;2023-12-20T02:52:38;5.76;86.25
82001;SHT30;71522;50.870;3.524;2023-12-20T02:55:04;5.80;86.43
82001;SHT30;71522;50.870;3.524;2023-12-20T02:57:30;5.84;86.36
82001;SHT30;71522;50.870;3.524;2023-12-20T02:59:55;5.87;86.50
82001;SHT30;71522;50.870;3.524;2023-12-20T03:02:21;5.97;86.26
82001;SHT30;71522;50.870;3.524;2023-12-20T03:04:46;6.00;86.03
82001;SHT30;71522;50.870;3.524;2023-12-20T03:07:12;5.98;85.84
82001;SHT30;71522;50.870;3.524;2023-12-20T03:09:38;6.00;85.64
82001;SHT30;71522;50.870;3.524;2023-12-20T03:12:04;5.91;85.37
82001;SHT30;71522;50.870;3.524;2023-12-20T03:14:29;5.78;85.47
82001;SHT30;71522;50.870;3.524;2023-12-20T03:16:55;5.67;85.67
82001;SHT30;71522;50.870;3.524;2023-12-20T03:19:21;5.57;85.98
82001;SHT30;71522;50.870;3.524;2023-12-20T03:21:47;5.49;86.01
82001;SHT30;71522;50.870;3.524;2023-12-20T03:24:13;5.53;86.05
82001;SHT30;71522;50.870;3.524;2023-12-20T03:26:39;5.53;85.83
82001;SHT30;71522;50.870;3.524;2023-12-20T03:29:04;5.50;85.92
82001;SHT30;71522;50.870;3.524;2023-12-20T03:31:30;5.47;85.88
82001;SHT30;71522;50.870;3.524;2023-12-20T03:33:55;5.35;86.16
82001;SHT30;71522;50.870;3.524;2023-12-20T03:36:21;5.31;86.41
82001;SHT30;71522;50.870;3.524;2023-12-20T03:38:47;5.29;86.44
82001;SHT30;71522;50.870;3.524;2023-12-20T03:41:14;5.26;86.57
82001;SHT30;71522;50.870;3.524;2023-12-20T03:43:39;5.24;86.64
82001;SHT30;71522;50.870;3.524;2023-12-20T03:46:05;5.14;86.83
82001;SHT30;71522;50.870;3.524;2023-12-20T03:48:31;5.05;87.45
82001;SHT30;71522;50.870;3.524;2023-12-20T03:50:57;5.04;88.16
82001;SHT30;71522;50.870;3.524;2023-12-20T03:53:23;5.12;87.74
82001;SHT30;71522;50.870;3.524;2023-12-20T03:55:48;5.11;87.57
82001;SHT30;71522;50.870;3.524;2023-12-20T03:58:14;5.04;87.78
82001;SHT30;71522;50.870;3.524;2023-12-20T04:00:39;5.07;87.60
82001;SHT30;71522;50.870;3.524;2023-12-20T04:03:05;5.07;87.53
82001;SHT30;71522;50.870;3.524;2023-12-20T04:05:31;5.01;87.71
82001;SHT30;71522;50.870;3.524;2023-12-20T04:07:59;5.04;87.80
82001;SHT30;71522;50.870;3.524;2023-12-20T04:10:25;5.09;87.81
82001;SHT30;71522;50.870;3.524;2023-12-20T04:12:50;5.15;87.79
82001;SHT30;71522;50.870;3.524;2023-12-20T04:15:16;5.22;87.49
82001;SHT30;71522;50.870;3.524;2023-12-20T04:17:42;5.22;87.39
82001;SHT30;71522;50.870;3.524;2023-12-20T04:20:08;5.26;87.38
82001;SHT30;71522;50.870;3.524;2023-12-20T04:22:33;5.36;87.17
82001;SHT30;71522;50.870;3.524;2023-12-20T04:24:59;5.40;86.78
82001;SHT30;71522;50.870;3.524;2023-12-20T04:27:25;5.36;86.32
82001;SHT30;71522;50.870;3.524;2023-12-20T04:29:50;5.40;86.09
82001;SHT30;71522;50.870;3.524;2023-12-20T04:32:17;5.39;85.85
82001;SHT30;71522;50.870;3.524;2023-12-20T04:34:44;5.35;85.86
82001;SHT30;71522;50.870;3.524;2023-12-20T04:37:09;5.24;86.05
82001;SHT30;71522;50.870;3.524;2023-12-20T04:39:35;5.22;86.18
82001;SHT30;71522;50.870;3.524;2023-12-20T04:42:01;5.15;86.39
82001;SHT30;71522;50.870;3.524;2023-12-20T04:44:28;5.04;86.81
82001;SHT30;71522;50.870;3.524;2023-12-20T04:46:54;4.98;87.03
82001;SHT30;71522;50.870;3.524;2023-12-20T04:49:25;4.95;87.22
82001;SHT30;71522;50.870;3.524;2023-12-20T04:51:50;4.91;87.75
82001;SHT30;71522;50.870;3.524;2023-12-20T04:54:16;4.94;87.67
82001;SHT30;71522;50.870;3.524;2023-12-20T04:56:42;4.92;87.73
82001;SHT30;71522;50.870;3.524;2023-12-20T04:59:07;4.99;87.71
82001;SHT30;71522;50.870;3.524;2023-12-20T05:01:33;5.08;87.21
82001;SHT30;71522;50.870;3.524;2023-12-20T05:03:59;5.07;87.13
82001;SHT30;71522;50.870;3.524;2023-12-20T05:06:24;5.12;87.09
82001;SHT30;71522;50.870;3.524;2023-12-20T05:08:50;5.19;86.90
82001;SHT30;71522;50.870;3.524;2023-12-20T05:11:16;5.19;86.93
82001;SHT30;71522;50.870;3.524;2023-12-20T05:13:42;5.14;86.88
82001;SHT30;71522;50.870;3.524;2023-12-20T05:16:08;5.12;86.88
82001;SHT30;71522;50.870;3.524;2023-12-20T05:18:34;5.08;86.92
82001;SHT30;71522;50.870;3.524;2023-12-20T05:21:00;5.11;86.89
82001;SHT30;71522;50.870;3.524;2023-12-20T05:23:27;5.01;86.97
82001;SHT30;71522;50.870;3.524;2023-12-20T05:25:53;4.98;87.17
82001;SHT30;71522;50.870;3.524;2023-12-20T05:28:18;5.05;87.12
82001;SHT30;71522;50.870;3.524;2023-12-20T05:30:44;5.04;87.35
82001;SHT30;71522;50.870;3.524;2023-12-20T05:33:09;5.11;86.98
82001;SHT30;71522;50.870;3.524;2023-12-20T05:35:35;5.12;86.72
82001;SHT30;71522;50.870;3.524;2023-12-20T05:38:01;5.18;86.52
82001;SHT30;71522;50.870;3.524;2023-12-20T05:40:26;5.18;86.41
82001;SHT30;71522;50.870;3.524;2023-12-20T05:42:52;5.28;86.59
82001;SHT30;71522;50.870;3.524;2023-12-20T05:45:19;5.43;86.45
82001;SHT30;71522;50.870;3.524;2023-12-20T05:47:45;5.50;86.36
82001;SHT30;71522;50.870;3.524;2023-12-20T05:50:10;5.56;86.10
82001;SHT30;71522;50.870;3.524;2023-12-20T05:52:36;5.59;85.91
82001;SHT30;71522;50.870;3.524;2023-12-20T05:55:02;5.63;85.80
82001;SHT30;71522;50.870;3.524;2023-12-20T05:57:27;5.63;85.68
82001;SHT30;71522;50.870;3.524;2023-12-20T05:59:53;5.50;85.48
82001;SHT30;71522;50.870;3.524;2023-12-20T06:02:19;5.39;85.56
82001;SHT30;71522;50.870;3.524;2023-12-20T06:04:45;5.31;85.87
82001;SHT30;71522;50.870;3.524;2023-12-20T06:07:15;5.22;85.96
82001;SHT30;71522;50.870;3.524;2023-12-20T06:09:40;5.19;86.02
82001;SHT30;71522;50.870;3.524;2023-12-20T06:12:07;5.14;86.05
82001;SHT30;71522;50.870;3.524;2023-12-20T06:14:33;5.14;86.12
82001;SHT30;71522;50.870;3.524;2023-12-20T06:17:00;5.14;86.27
82001;SHT30;71522;50.870;3.524;2023-12-20T06:19:27;5.09;86.29
82001;SHT30;71522;50.870;3.524;2023-12-20T06:21:53;5.14;86.22
82001;SHT30;71522;50.870;3.524;2023-12-20T06:24:19;5.14;86.24
82001;SHT30;71522;50.870;3.524;2023-12-20T06:26:44;5.22;85.78
82001;SHT30;71522;50.870;3.524;2023-12-20T06:29:10;5.14;85.82
82001;SHT30;71522;50.870;3.524;2023-12-20T06:31:36;5.08;85.94
82001;SHT30;71522;50.870;3.524;2023-12-20T06:34:01;5.16;85.91
82001;SHT30;71522;50.870;3.524;2023-12-20T06:36:27;5.14;85.60
82001;SHT30;71522;50.870;3.524;2023-12-20T06:38:53;5.05;85.74
82001;SHT30;71522;50.870;3.524;2023-12-20T06:41:19;5.09;86.08
82001;SHT30;71522;50.870;3.524;2023-12-20T06:43:44;5.07;86.09
82001;SHT30;71522;50.870;3.524;2023-12-20T06:46:10;5.08;85.82
82001;SHT30;71522;50.870;3.524;2023-12-20T06:48:36;5.07;86.13
82001;SHT30;71522;50.870;3.524;2023-12-20T06:51:02;5.08;86.01
82001;SHT30;71522;50.870;3.524;2023-12-20T06:53:28;5.08;85.73
82001;SHT30;71522;50.870;3.524;2023-12-20T06:55:53;5.04;85.87
82001;SHT30;71522;50.870;3.524;2023-12-20T06:58:21;4.99;86.05
82001;SHT30;71522;50.870;3.524;2023-12-20T07:00:47;5.07;85.93
82001;SHT30;71522;50.870;3.524;2023-12-20T07:03:13;5.02;85.94
82001;SHT30;71522;50.870;3.524;2023-12-20T07:05:38;4.94;85.95
82001;SHT30;71522;50.870;3.524;2023-12-20T07:08:05;4.97;86.01
82001;SHT30;71522;50.870;3.524;2023-12-20T07:10:31;4.97;86.05
82001;SHT30;71522;50.870;3.524;2023-12-20T07:12:56;4.98;85.95
82001;SHT30;71522;50.870;3.524;2023-12-20T07:15:22;5.04;85.86
82001;SHT30;71522;50.870;3.524;2023-12-20T07:17:48;5.08;85.79
82001;SHT30;71522;50.870;3.524;2023-12-20T07:20:14;5.07;85.51
82001;SHT30;71522;50.870;3.524;2023-12-20T07:22:39;5.16;85.47
82001;SHT30;71522;50.870;3.524;2023-12-20T07:25:06;5.19;85.41
82001;SHT30;71522;50.870;3.524;2023-12-20T07:27:32;5.21;85.32
82001;SHT30;71522;50.870;3.524;2023-12-20T07:29:57;5.24;85.02
82001;SHT30;71522;50.870;3.524;2023-12-20T07:32:23;5.21;85.25
82001;SHT30;71522;50.870;3.524;2023-12-20T07:34:49;5.22;85.19
82001;SHT30;71522;50.870;3.524;2023-12-20T07:37:15;5.22;85.07
82001;SHT30;71522;50.870;3.524;2023-12-20T07:39:41;5.18;85.25
82001;SHT30;71522;50.870;3.524;2023-12-20T07:42:08;5.16;85.41
82001;SHT30;71522;50.870;3.524;2023-12-20T07:44:35;5.12;85.50
82001;SHT30;71522;50.870;3.524;2023-12-20T07:47:04;5.12;85.64
82001;SHT30;71522;50.870;3.524;2023-12-20T07:49:32;5.21;85.52
82001;SHT30;71522;50.870;3.524;2023-12-20T07:51:58;5.24;85.26
82001;SHT30;71522;50.870;3.524;2023-12-20T07:54:23;5.24;85.22
82001;SHT30;71522;50.870;3.524;2023-12-20T07:56:50;5.24;85.11
82001;SHT30;71522;50.870;3.524;2023-12-20T07:59:18;5.22;85.36
82001;SHT30;71522;50.870;3.524;2023-12-20T08:01:44;5.22;85.35
82001;SHT30;71522;50.870;3.524;2023-12-20T08:04:09;5.25;85.49
82001;SHT30;71522;50.870;3.524;2023-12-20T08:06:35;5.22;85.59
82001;SHT30;71522;50.870;3.524;2023-12-20T08:09:01;5.26;85.56
82001;SHT30;71522;50.870;3.524;2023-12-20T08:11:26;5.32;85.31
82001;SHT30;71522;50.870;3.524;2023-12-20T08:13:52;5.38;85.03
82001;SHT30;71522;50.870;3.524;2023-12-20T08:16:18;5.36;85.18
82001;SHT30;71522;50.870;3.524;2023-12-20T08:18:44;5.40;85.22
82001;SHT30;71522;50.870;3.524;2023-12-20T08:21:10;5.50;84.89
82001;SHT30;71522;50.870;3.524;2023-12-20T08:23:37;5.53;84.61
82001;SHT30;71522;50.870;3.524;2023-12-20T08:26:07;5.63;84.54
82001;SHT30;71522;50.870;3.524;2023-12-20T08:28:34;5.69;84.34
82001;SHT30;71522;50.870;3.524;2023-12-20T08:31:02;5.64;84.31
82001;SHT30;71522;50.870;3.524;2023-12-20T08:33:27;5.63;84.56
82001;SHT30;71522;50.870;3.524;2023-12-20T08:35:53;5.66;84.54
82001;SHT30;71522;50.870;3.524;2023-12-20T08:38:19;5.71;84.59
82001;SHT30;71522;50.870;3.524;2023-12-20T08:40:44;5.67;84.62
82001;SHT30;71522;50.870;3.524;2023-12-20T08:43:10;5.71;84.79
82001;SHT30;71522;50.870;3.524;2023-12-20T08:45:36;5.80;84.69
82001;SHT30;71522;50.870;3.524;2023-12-20T08:48:02;5.86;84.72
82001;SHT30;71522;50.870;3.524;2023-12-20T08:50:28;5.89;84.91
82001;SHT30;71522;50.870;3.524;2023-12-20T08:52:54;5.98;84.73
82001;SHT30;71522;50.870;3.524;2023-12-20T08:55:20;6.17;84.41
82001;SHT30;71522;50.870;3.524;2023-12-20T08:57:45;6.22;84.38
82001;SHT30;71522;50.870;3.524;2023-12-20T09:00:12;6.35;84.39
82001;SHT30;71522;50.870;3.524;2023-12-20T09:02:38;6.39;84.19
82001;SHT30;71522;50.870;3.524;2023-12-20T09:05:04;6.42;84.05
82001;SHT30;71522;50.870;3.524;2023-12-20T09:07:30;6.49;83.93
82001;SHT30;71522;50.870;3.524;2023-12-20T09:09:58;6.50;83.80
82001;SHT30;71522;50.870;3.524;2023-12-20T09:12:25;6.52;84.09
82001;SHT30;71522;50.870;3.524;2023-12-20T09:14:51;6.50;84.47
82001;SHT30;71522;50.870;3.524;2023-12-20T09:17:18;6.55;84.20
82001;SHT30;71522;50.870;3.524;2023-12-20T09:19:45;6.56;84.24
82001;SHT30;71522;50.870;3.524;2023-12-20T09:22:11;6.66;83.90
82001;SHT30;71522;50.870;3.524;2023-12-20T09:24:49;6.65;83.80
82001;SHT30;71522;50.870;3.524;2023-12-20T09:27:15;6.61;83.75
82001;SHT30;71522;50.870;3.524;2023-12-20T09:29:42;6.65;83.86
82001;SHT30;71522;50.870;3.524;2023-12-20T09:32:08;6.77;83.56
82001;SHT30;71522;50.870;3.524;2023-12-20T09:34:34;6.80;83.68
82001;SHT30;71522;50.870;3.524;2023-12-20T09:36:59;6.89;83.61
82001;SHT30;71522;50.870;3.524;2023-12-20T09:39:25;6.86;83.92
82001;SHT30;71522;50.870;3.524;2023-12-20T09:42:02;7.01;83.29
82001;SHT30;71522;50.870;3.524;2023-12-20T09:44:28;7.10;83.56
82001;SHT30;71522;50.870;3.524;2023-12-20T09:46:56;7.08;83.78
82001;SHT30;71522;50.870;3.524;2023-12-20T09:49:22;7.14;83.42
82001;SHT30;71522;50.870;3.524;2023-12-20T09:51:50;7.20;83.16
82001;SHT30;71522;50.870;3.524;2023-12-20T09:54:19;7.22;83.39
82001;SHT30;71522;50.870;3.524;2023-12-20T09:56:46;7.17;83.67
82001;SHT30;71522;50.870;3.524;2023-12-20T09:59:13;7.20;83.66
82001;SHT30;71522;50.870;3.524;2023-12-20T10:01:41;7.25;83.79
82001;SHT30;71522;50.870;3.524;2023-12-20T10:04:13;7.25;83.88
82001;SHT30;71522;50.870;3.524;2023-12-20T10:06:54;7.34;83.68
82001;SHT30;71522;50.870;3.524;2023-12-20T10:09:21;7.32;83.90
82001;SHT30;71522;50.870;3.524;2023-12-20T10:11:56;7.34;83.83
82001;SHT30;71522;50.870;3.524;2023-12-20T10:14:25;7.34;83.94
82001;SHT30;71522;50.870;3.524;2023-12-20T10:17:02;7.35;83.88
82001;SHT30;71522;50.870;3.524;2023-12-20T10:19:31;7.48;83.45
82001;SHT30;71522;50.870;3.524;2023-12-20T10:22:01;7.47;83.56
82001;SHT30;71522;50.870;3.524;2023-12-20T10:24:32;7.59;83.40
82001;SHT30;71522;50.870;3.524;2023-12-20T10:27:15;7.72;83.21
82001;SHT30;71522;50.870;3.524;2023-12-20T10:29:49;7.76;83.14
82001;SHT30;71522;50.870;3.524;2023-12-20T10:32:28;7.76;82.85
82001;SHT30;71522;50.870;3.524;2023-12-20T10:35:04;7.85;82.76
82001;SHT30;71522;50.870;3.524;2023-12-20T10:38:07;7.86;82.61
82001;SHT30;71522;50.870;3.524;2023-12-20T10:40:38;7.97;82.45
82001;SHT30;71522;50.870;3.524;2023-12-20T10:46:03;8.11;81.99
82001;SHT30;71522;50.870;3.524;2023-12-20T10:48:31;8.19;81.93
82001;SHT30;71522;50.870;3.524;2023-12-20T10:51:08;8.17;81.53
82001;SHT30;71522;50.870;3.524;2023-12-20T10:53:57;8.07;82.32
82001;SHT30;71522;50.870;3.524;2023-12-20T10:56:33;8.07;82.33
82001;SHT30;71522;50.870;3.524;2023-12-20T10:59:11;8.11;82.52
82001;SHT30;71522;50.870;3.524;2023-12-20T11:01:46;8.07;82.94
82001;SHT30;71522;50.870;3.524;2023-12-20T11:04:20;8.01;83.24
82001;SHT30;71522;50.870;3.524;2023-12-20T11:06:59;8.17;82.94
82001;SHT30;71522;50.870;3.524;2023-12-20T11:09:58;8.21;82.63
82001;SHT30;71522;50.870;3.524;2023-12-20T11:15:38;8.27;82.78
82001;SHT30;71522;50.870;3.524;2023-12-20T11:18:08;8.23;82.81
82001;SHT30;71522;50.870;3.524;2023-12-20T11:20:40;8.21;82.97
82001;SHT30;71522;50.870;3.524;2023-12-20T11:23:19;8.28;82.79
82001;SHT30;71522;50.870;3.524;2023-12-20T11:25:57;8.36;82.39
82001;SHT30;71522;50.870;3.524;2023-12-20T11:28:28;8.37;82.30
82001;SHT30;71522;50.870;3.524;2023-12-20T11:31:01;8.30;82.16
82001;SHT30;71522;50.870;3.524;2023-12-20T11:33:50;8.37;82.46
82001;SHT30;71522;50.870;3.524;2023-12-20T11:36:24;8.45;82.31
82001;SHT30;71522;50.870;3.524;2023-12-20T11:39:03;8.48;81.61
82001;SHT30;71522;50.870;3.524;2023-12-20T11:41:37;8.57;81.53
82001;SHT30;71522;50.870;3.524;2023-12-20T11:44:12;8.64;81.40
82001;SHT30;71522;50.870;3.524;2023-12-20T11:46:41;8.61;81.30
82001;SHT30;71522;50.870;3.524;2023-12-20T11:49:07;8.73;80.78
82001;SHT30;71522;50.870;3.524;2023-12-20T11:51:52;8.86;80.40
82001;SHT30;71522;50.870;3.524;2023-12-20T11:54:18;8.79;81.14
82001;SHT30;71522;50.870;3.524;2023-12-20T11:56:46;8.82;81.19
82001;SHT30;71522;50.870;3.524;2023-12-20T11:59:17;8.90;81.19
82001;SHT30;71522;50.870;3.524;2023-12-20T12:01:50;9.05;80.64
82001;SHT30;71522;50.870;3.524;2023-12-20T12:04:28;9.15;80.90
82001;SHT30;71522;50.870;3.524;2023-12-20T12:07:02;9.06;81.14
82001;SHT30;71522;50.870;3.524;2023-12-20T12:09:37;8.98;81.50
82001;SHT30;71522;50.870;3.524;2023-12-20T12:12:04;8.92;81.59
82001;SHT30;71522;50.870;3.524;2023-12-20T12:14:33;9.06;81.28
82001;SHT30;71522;50.870;3.524;2023-12-20T12:17:04;9.05;81.30
82001;SHT30;71522;50.870;3.524;2023-12-20T12:19:31;9.12;81.07
82001;SHT30;71522;50.870;3.524;2023-12-20T12:24:54;9.06;81.55
82001;SHT30;71522;50.870;3.524;2023-12-20T12:27:43;8.99;81.42
82001;SHT30;71522;50.870;3.524;2023-12-20T12:30:17;8.98;81.52
82001;SHT30;71522;50.870;3.524;2023-12-20T12:32:55;9.02;81.34
82001;SHT30;71522;50.870;3.524;2023-12-20T12:35:26;9.09;81.75
82001;SHT30;71522;50.870;3.524;2023-12-20T12:37:59;9.12;81.61
82001;SHT30;71522;50.870;3.524;2023-12-20T12:40:29;9.17;81.33
82001;SHT30;71522;50.870;3.524;2023-12-20T12:43:09;9.34;80.90
82001;SHT30;71522;50.870;3.524;2023-12-20T12:48:42;9.33;81.30
82001;SHT30;71522;50.870;3.524;2023-12-20T12:51:10;9.30;81.11
82001;SHT30;71522;50.870;3.524;2023-12-20T12:53:40;9.34;81.23
82001;SHT30;71522;50.870;3.524;2023-12-20T12:56:10;9.46;80.85
82001;SHT30;71522;50.870;3.524;2023-12-20T12:58:38;9.40;80.84
82001;SHT30;71522;50.870;3.524;2023-12-20T13:01:05;9.38;81.34
82001;SHT30;71522;50.870;3.524;2023-12-20T13:03:31;9.44;80.79
82001;SHT30;71522;50.870;3.524;2023-12-20T13:06:14;9.48;81.20
82001;SHT30;71522;50.870;3.524;2023-12-20T13:08:46;9.46;80.94
82001;SHT30;71522;50.870;3.524;2023-12-20T13:11:33;9.37;80.78
82001;SHT30;71522;50.870;3.524;2023-12-20T13:14:01;9.37;80.95
82001;SHT30;71522;50.870;3.524;2023-12-20T13:16:32;9.31;80.86
82001;SHT30;71522;50.870;3.524;2023-12-20T13:19:06;9.36;81.14
82001;SHT30;71522;50.870;3.524;2023-12-20T13:21:35;9.31;81.07
82001;SHT30;71522;50.870;3.524;2023-12-20T13:24:05;9.36;80.68
82001;SHT30;71522;50.870;3.524;2023-12-20T13:26:35;9.44;80.40
82001;SHT30;71522;50.870;3.524;2023-12-20T13:29:03;9.43;80.69
82001;SHT30;71522;50.870;3.524;2023-12-20T13:31:29;9.40;80.48
82001;SHT30;71522;50.870;3.524;2023-12-20T13:34:15;9.41;80.81
82001;SHT30;71522;50.870;3.524;2023-12-20T13:36:44;9.48;80.79
82001;SHT30;71522;50.870;3.524;2023-12-20T13:39:19;9.51;80.82
82001;SHT30;71522;50.870;3.524;2023-12-20T13:41:46;9.52;80.86
82001;SHT30;71522;50.870;3.524;2023-12-20T13:44:13;9.47;81.12
82001;SHT30;71522;50.870;3.524;2023-12-20T13:46:44;9.47;81.10
82001;SHT30;71522;50.870;3.524;2023-12-20T13:49:12;9.47;80.86
82001;SHT30;71522;50.870;3.524;2023-12-20T13:51:44;9.46;81.09
82001;SHT30;71522;50.870;3.524;2023-12-20T13:54:16;9.38;80.86
82001;SHT30;71522;50.870;3.524;2023-12-20T13:56:48;9.36;81.01
82001;SHT30;71522;50.870;3.524;2023-12-20T13:59:17;9.41;80.64
82001;SHT30;71522;50.870;3.524;2023-12-20T14:01:47;9.38;80.91
82001;SHT30;71522;50.870;3.524;2023-12-20T14:04:19;9.37;80.97
82001;SHT30;71522;50.870;3.524;2023-12-20T14:06:50;9.31;81.03
82001;SHT30;71522;50.870;3.524;2023-12-20T14:09:16;9.31;81.25
82001;SHT30;71522;50.870;3.524;2023-12-20T14:11:45;9.37;80.64
82001;SHT30;71522;50.870;3.524;2023-12-20T14:14:16;9.31;80.93
82001;SHT30;71522;50.870;3.524;2023-12-20T14:16:47;9.40;81.08
82001;SHT30;71522;50.870;3.524;2023-12-20T14:19:19;9.44;80.70
82001;SHT30;71522;50.870;3.524;2023-12-20T14:21:49;9.41;80.98
82001;SHT30;71522;50.870;3.524;2023-12-20T14:24:16;9.51;80.38
82001;SHT30;71522;50.870;3.524;2023-12-20T14:26:42;9.58;80.65
82001;SHT30;71522;50.870;3.524;2023-12-20T14:29:08;9.68;80.14
82001;SHT30;71522;50.870;3.524;2023-12-20T14:31:42;9.75;79.83
82001;SHT30;71522;50.870;3.524;2023-12-20T14:34:08;9.74;80.13
82001;SHT30;71522;50.870;3.524;2023-12-20T14:36:37;9.81;80.14
82001;SHT30;71522;50.870;3.524;2023-12-20T14:39:10;9.77;80.63
82001;SHT30;71522;50.870;3.524;2023-12-20T14:41:55;9.82;79.74
82001;SHT30;71522;50.870;3.524;2023-12-20T14:44:22;9.86;80.02
82001;SHT30;71522;50.870;3.524;2023-12-20T14:46:58;9.79;80.26
82001;SHT30;71522;50.870;3.524;2023-12-20T14:49:27;9.71;80.47
82001;SHT30;71522;50.870;3.524;2023-12-20T14:51:53;9.71;80.40
82001;SHT30;71522;50.870;3.524;2023-12-20T14:54:19;9.71;80.45
82001;SHT30;71522;50.870;3.524;2023-12-20T14:56:47;9.62;80.71
82001;SHT30;71522;50.870;3.524;2023-12-20T14:59:37;9.68;81.04
82001;SHT30;71522;50.870;3.524;2023-12-20T15:02:30;9.65;80.84
82001;SHT30;71522;50.870;3.524;2023-12-20T15:04:59;9.65;81.05
82001;SHT30;71522;50.870;3.524;2023-12-20T15:07:49;9.73;80.85
82001;SHT30;71522;50.870;3.524;2023-12-20T15:10:21;9.62;81.10
82001;SHT30;71522;50.870;3.524;2023-12-20T15:12:55;9.52;81.51
82001;SHT30;71522;50.870;3.524;2023-12-20T15:15:26;9.50;81.69
82001;SHT30;71522;50.870;3.524;2023-12-20T15:17:54;9.46;81.70
82001;SHT30;71522;50.870;3.524;2023-12-20T15:20:20;9.47;81.70
82001;SHT30;71522;50.870;3.524;2023-12-20T15:22:45;9.44;81.74
82001;SHT30;71522;50.870;3.524;2023-12-20T15:25:17;9.40;81.87
82001;SHT30;71522;50.870;3.524;2023-12-20T15:27:49;9.37;82.17
82001;SHT30;71522;50.870;3.524;2023-12-20T15:30:19;9.31;82.27
82001;SHT30;71522;50.870;3.524;2023-12-20T15:33:01;9.27;82.33
82001;SHT30;71522;50.870;3.524;2023-12-20T15:35:35;9.34;82.26
82001;SHT30;71522;50.870;3.524;2023-12-20T15:38:06;9.33;82.16
82001;SHT30;71522;50.870;3.524;2023-12-20T15:40:42;9.27;82.51
82001;SHT30;71522;50.870;3.524;2023-12-20T15:43:12;9.27;82.37
82001;SHT30;71522;50.870;3.524;2023-12-20T15:45:40;9.26;82.57
82001;SHT30;71522;50.870;3.524;2023-12-20T15:48:14;9.30;82.61
82001;SHT30;71522;50.870;3.524;2023-12-20T15:50:50;9.22;82.88
82001;SHT30;71522;50.870;3.524;2023-12-20T15:53:22;9.27;82.86
82001;SHT30;71522;50.870;3.524;2023-12-20T15:55:51;9.31;82.81
82001;SHT30;71522;50.870;3.524;2023-12-20T15:58:17;9.26;82.87
82001;SHT30;71522;50.870;3.524;2023-12-20T16:00:44;9.27;83.02
82001;SHT30;71522;50.870;3.524;2023-12-20T16:03:22;9.27;82.77
82001;SHT30;71522;50.870;3.524;2023-12-20T16:05:55;9.29;82.90